Time;durP1;ratioP1;P1;durP2;ratioP2;P2;SDS_P1;SDS_P2;PMS_P1;PMS_P2;Temp;Humidity;BMP_temperature;BMP_pressure;BME280_temperature;BME280_humidity;BME280_pressure;Samples;Min_cycle;Max_cycle;Signal;HPM_P1;HPM_P2
2022/12/04 00:01:16;;;;;;;28.40;17.30;;;3.00;99.90;;;;;;5094062;28;20426;-30
2022/12/04 00:03:42;;;;;;;28.97;17.40;;;3.10;99.90;;;;;;5086651;28;20434;-30
2022/12/04 00:06:11;;;;;;;32.20;18.27;;;3.00;99.90;;;;;;5090383;28;20430;-30
2022/12/04 00:08:37;;;;;;;29.20;17.17;;;3.00;99.90;;;;;;5091292;28;20694;-30
2022/12/04 00:11:04;;;;;;;30.73;18.73;;;2.90;99.90;;;;;;5090444;28;20481;-30
2022/12/04 00:13:30;;;;;;;36.00;18.47;;;2.90;99.90;;;;;;5076672;28;20453;-30
2022/12/04 00:15:56;;;;;;;28.97;17.77;;;3.10;99.90;;;;;;5090613;28;20546;-30
2022/12/04 00:18:21;;;;;;;33.10;19.70;;;2.90;99.90;;;;;;5090551;28;20556;-30
2022/12/04 00:20:47;;;;;;;26.33;16.37;;;3.10;99.90;;;;;;5090910;28;20283;-30
2022/12/04 00:23:13;;;;;;;35.00;20.60;;;2.90;99.90;;;;;;5082138;28;20197;-30
2022/12/04 00:25:38;;;;;;;30.70;17.40;;;2.90;99.90;;;;;;5090751;28;20200;-30
2022/12/04 00:28:04;;;;;;;33.07;18.77;;;2.90;99.90;;;;;;5090484;28;20199;-30
2022/12/04 00:30:30;;;;;;;29.60;17.80;;;2.90;99.90;;;;;;5090167;28;20218;-31
2022/12/04 00:32:55;;;;;;;32.40;17.47;;;2.80;99.90;;;;;;5090206;28;20184;-30
2022/12/04 00:35:24;;;;;;;30.83;17.00;;;2.70;99.90;;;;;;5089030;28;20193;-30
2022/12/04 00:37:50;;;;;;;30.57;17.57;;;2.80;99.90;;;;;;5088814;28;20272;-30
2022/12/04 00:40:16;;;;;;;31.60;17.50;;;2.90;99.90;;;;;;5090096;28;20427;-30
2022/12/04 00:42:41;;;;;;;31.67;17.57;;;2.90;99.90;;;;;;5089896;28;20181;-30
2022/12/04 00:45:07;;;;;;;30.20;18.63;;;3.10;99.90;;;;;;5090001;28;20939;-30
2022/12/04 00:47:33;;;;;;;28.20;17.13;;;3.10;99.90;;;;;;5090372;28;20658;-30
2022/12/04 00:49:59;;;;;;;32.40;18.27;;;3.10;99.90;;;;;;5088142;28;20480;-30
2022/12/04 00:52:27;;;;;;;31.27;18.70;;;2.90;99.90;;;;;;5090246;28;20559;-30
2022/12/04 00:54:52;;;;;;;29.40;17.87;;;2.90;99.90;;;;;;5089887;28;20193;-30
2022/12/04 00:57:18;;;;;;;28.80;16.73;;;3.00;99.90;;;;;;5088477;28;20437;-30
2022/12/04 00:59:43;;;;;;;27.27;17.17;;;3.10;99.90;;;;;;5088852;28;20631;-30
2022/12/04 01:02:09;;;;;;;27.60;17.00;;;3.20;99.90;;;;;;5081818;28;20639;-30
2022/12/04 01:04:35;;;;;;;27.03;16.70;;;3.20;99.90;;;;;;5088509;28;20249;-30
2022/12/04 01:07:00;;;;;;;29.17;17.87;;;2.90;99.90;;;;;;5090224;28;20226;-30
2022/12/04 01:09:26;;;;;;;27.00;17.13;;;3.00;99.90;;;;;;5088039;28;20238;-30
2022/12/04 01:11:52;;;;;;;30.07;17.10;;;2.80;99.90;;;;;;5089726;28;20181;-29
2022/12/04 01:14:17;;;;;;;25.47;14.87;;;2.90;99.90;;;;;;5089576;28;20176;-30
2022/12/04 01:16:43;;;;;;;27.40;15.77;;;3.00;99.90;;;;;;5089718;28;20264;-30
2022/12/04 01:19:11;;;;;;;28.43;17.27;;;3.00;99.90;;;;;;5089304;28;20212;-30
2022/12/04 01:21:37;;;;;;;28.50;17.37;;;3.00;99.90;;;;;;5089805;28;20188;-30
2022/12/04 01:24:04;;;;;;;26.30;17.10;;;2.80;99.90;;;;;;5089724;28;20720;-30
2022/12/04 01:26:30;;;;;;;29.43;16.93;;;2.80;99.90;;;;;;5086153;28;20433;-30
2022/12/04 01:28:56;;;;;;;28.93;17.43;;;2.90;99.90;;;;;;5082736;28;20428;-30
2022/12/04 01:31:22;;;;;;;28.20;17.20;;;3.10;99.90;;;;;;5087705;28;20475;-30
2022/12/04 01:33:49;;;;;;;30.07;17.60;;;3.00;99.90;;;;;;5087993;28;20229;-30
2022/12/04 01:36:17;;;;;;;26.87;16.33;;;2.80;99.90;;;;;;5089098;28;20622;-30
2022/12/04 01:38:43;;;;;;;26.67;16.00;;;3.20;99.90;;;;;;5088981;28;20457;-30
2022/12/04 01:41:10;;;;;;;28.90;16.90;;;3.10;99.90;;;;;;5089047;28;20468;-30
2022/12/04 01:43:37;;;;;;;27.97;17.50;;;3.10;99.90;;;;;;5089234;28;20406;-30
2022/12/04 01:46:05;;;;;;;27.60;17.40;;;3.00;99.90;;;;;;5089660;28;20485;-30
2022/12/04 01:48:42;;;;;;;29.07;18.10;;;3.10;99.90;;;;;;5089167;28;20430;-30
2022/12/04 01:51:23;;;;;;;26.37;16.17;;;3.20;99.90;;;;;;5089205;28;20470;-30
2022/12/04 01:53:58;;;;;;;23.80;15.77;;;3.10;99.90;;;;;;5087277;28;20403;-30
2022/12/04 01:56:30;;;;;;;30.20;16.00;;;2.80;99.90;;;;;;5089289;28;20423;-30
2022/12/04 01:59:00;;;;;;;30.30;16.47;;;3.10;99.90;;;;;;5088936;28;20490;-30
2022/12/04 02:01:30;;;;;;;27.10;16.37;;;3.20;99.90;;;;;;5089236;28;20398;-30
2022/12/04 02:03:59;;;;;;;30.37;16.53;;;3.10;99.90;;;;;;5103944;28;21046;-30
2022/12/04 02:06:25;;;;;;;28.03;16.03;;;2.90;99.90;;;;;;5089092;28;20768;-30
2022/12/04 02:08:50;;;;;;;30.27;18.33;;;3.10;99.90;;;;;;5088452;28;20425;-30
2022/12/04 02:11:35;;;;;;;29.10;16.63;;;3.00;99.90;;;;;;5088655;28;20176;-30
2022/12/04 02:14:10;;;;;;;28.30;15.37;;;2.80;99.90;;;;;;5067905;28;20177;-30
2022/12/04 02:16:47;;;;;;;25.83;15.77;;;2.90;99.90;;;;;;5068257;28;20430;-30
2022/12/04 02:19:21;;;;;;;28.40;15.80;;;2.80;99.90;;;;;;5067937;28;20461;-30
2022/12/04 02:21:50;;;;;;;26.73;15.10;;;2.80;99.90;;;;;;5068579;28;20461;-30
2022/12/04 02:24:27;;;;;;;28.77;16.63;;;3.10;99.90;;;;;;5067886;28;20784;-30
2022/12/04 02:27:07;;;;;;;27.70;16.77;;;3.00;99.90;;;;;;5081146;28;20410;-30
2022/12/04 02:30:03;;;;;;;29.70;17.57;;;3.00;99.90;;;;;;5079327;28;20853;-30
2022/12/04 02:32:52;;;;;;;28.97;16.13;;;2.80;99.90;;;;;;5079831;28;20644;-30
2022/12/04 02:35:27;;;;;;;26.40;15.30;;;2.90;99.90;;;;;;5075467;28;20414;-30
2022/12/04 02:37:58;;;;;;;27.77;15.60;;;2.80;99.90;;;;;;5088606;28;20880;-30
2022/12/04 02:40:32;;;;;;;29.97;17.10;;;2.70;99.90;;;;;;5087974;28;20438;-30
2022/12/04 02:43:15;;;;;;;23.97;16.20;;;2.80;99.90;;;;;;5088055;28;20493;-30
2022/12/04 02:45:47;;;;;;;25.47;16.17;;;2.70;99.90;;;;;;5088075;28;20414;-30
2022/12/04 02:48:18;;;;;;;27.27;15.87;;;2.80;99.90;;;;;;5088110;28;20411;-30
2022/12/04 02:50:47;;;;;;;25.67;16.30;;;2.70;99.90;;;;;;5087700;28;20402;-30
2022/12/04 02:53:18;;;;;;;25.53;15.50;;;2.60;99.90;;;;;;5087851;28;20422;-30
2022/12/04 02:55:52;;;;;;;26.77;15.37;;;2.90;99.90;;;;;;5087847;28;20419;-30
2022/12/04 02:58:29;;;;;;;26.10;14.40;;;2.70;99.90;;;;;;5087735;28;20560;-30
2022/12/04 03:00:58;;;;;;;23.03;15.00;;;2.60;99.90;;;;;;5088144;28;20414;-30
2022/12/04 03:03:26;;;;;;;25.40;15.67;;;2.80;99.90;;;;;;5079059;28;20510;-30
2022/12/04 03:06:09;;;;;;;24.77;15.23;;;2.70;99.90;;;;;;5088120;28;20421;-30
2022/12/04 03:08:41;;;;;;;24.40;14.63;;;2.60;99.90;;;;;;5087221;28;20419;-30
2022/12/04 03:11:07;;;;;;;26.37;15.03;;;2.70;99.90;;;;;;5087992;28;20443;-30
2022/12/04 03:13:50;;;;;;;24.30;13.80;;;2.90;99.90;;;;;;5068944;28;20427;-30
2022/12/04 03:16:33;;;;;;;22.90;13.73;;;2.80;99.90;;;;;;5067631;28;20810;-30
2022/12/04 03:19:02;;;;;;;22.70;13.20;;;2.70;99.90;;;;;;5066915;28;20447;-30
2022/12/04 03:21:34;;;;;;;20.40;12.83;;;2.70;99.90;;;;;;5067603;28;20528;-30
2022/12/04 03:24:21;;;;;;;24.50;14.33;;;3.00;99.90;;;;;;5069332;28;20415;-30
2022/12/04 03:26:59;;;;;;;24.97;14.47;;;2.60;99.90;;;;;;5071887;28;20502;-30
2022/12/04 03:29:34;;;;;;;22.17;13.50;;;2.90;99.90;;;;;;5071096;28;20442;-30
2022/12/04 03:32:19;;;;;;;23.77;13.70;;;3.00;99.90;;;;;;5071866;28;20414;-30
2022/12/04 03:34:53;;;;;;;24.13;14.67;;;2.80;99.90;;;;;;5068402;28;20403;-30
2022/12/04 03:37:40;;;;;;;22.37;13.87;;;2.70;99.90;;;;;;5071859;28;20750;-30
2022/12/04 03:40:11;;;;;;;21.03;13.23;;;2.90;99.90;;;;;;5069455;28;20415;-30
2022/12/04 03:42:59;;;;;;;20.10;14.53;;;2.80;99.90;;;;;;5071543;28;20494;-30
2022/12/04 03:45:38;;;;;;;25.43;13.80;;;2.90;99.90;;;;;;5102825;28;20422;-30
2022/12/04 03:48:17;;;;;;;20.10;13.93;;;2.90;99.90;;;;;;5087226;28;20521;-29
2022/12/04 03:50:57;;;;;;;19.23;11.97;;;2.90;99.90;;;;;;5091178;28;20417;-30
2022/12/04 03:53:45;;;;;;;21.50;12.50;;;2.90;99.90;;;;;;5091212;28;20504;-30
2022/12/04 03:56:30;;;;;;;21.00;14.50;;;2.90;99.90;;;;;;5091687;28;20426;-30
2022/12/04 03:59:05;;;;;;;21.67;12.77;;;2.90;99.90;;;;;;5091184;28;20461;-30
2022/12/04 04:01:40;;;;;;;19.30;12.97;;;2.70;99.90;;;;;;5091264;28;20405;-30
2022/12/04 04:04:11;;;;;;;19.10;13.33;;;2.70;99.90;;;;;;5091151;28;20414;-30
2022/12/04 04:06:44;;;;;;;18.40;11.60;;;2.80;99.90;;;;;;5091272;28;20908;-30
2022/12/04 04:09:16;;;;;;;21.93;12.83;;;2.90;99.90;;;;;;5090539;28;20492;-29
2022/12/04 04:11:50;;;;;;;19.60;12.03;;;2.80;99.90;;;;;;5086427;28;20435;-30
2022/12/04 04:26:06;;;;;;;18.50;12.07;;;2.80;99.90;;;;;;5070747;28;20806;-30
2022/12/04 04:28:40;;;;;;;19.07;12.77;;;2.80;99.90;;;;;;5068665;28;20427;-30
2022/12/04 04:31:31;;;;;;;21.57;12.67;;;3.00;99.90;;;;;;5070640;28;20419;-30
2022/12/04 04:34:20;;;;;;;17.90;11.30;;;2.80;99.90;;;;;;5068989;28;20785;-30
2022/12/04 04:37:26;;;;;;;20.70;12.00;;;2.80;99.90;;;;;;5068263;28;20423;-29
2022/12/04 04:40:19;;;;;;;17.90;11.90;;;2.70;99.90;;;;;;5026992;28;20524;-30
2022/12/04 04:43:07;;;;;;;20.90;13.70;;;2.80;99.90;;;;;;5070138;28;20443;-30
2022/12/04 04:45:38;;;;;;;20.33;12.93;;;2.90;99.90;;;;;;5070215;28;21178;-30
2022/12/04 04:48:13;;;;;;;18.87;12.40;;;2.80;99.90;;;;;;5070148;28;20403;-30
2022/12/04 04:50:40;;;;;;;18.53;11.77;;;2.80;99.90;;;;;;5069626;28;20889;-30
2022/12/04 04:53:14;;;;;;;22.00;12.53;;;2.80;99.90;;;;;;5069472;28;20917;-30
2022/12/04 04:55:40;;;;;;;18.37;12.50;;;2.80;99.90;;;;;;5079788;28;20423;-30
2022/12/04 04:58:11;;;;;;;19.47;12.40;;;3.00;99.90;;;;;;5081755;28;20534;-30
2022/12/04 05:00:37;;;;;;;22.23;13.60;;;2.80;99.90;;;;;;5089676;28;20463;-30
2022/12/04 05:03:03;;;;;;;20.00;12.53;;;2.80;99.90;;;;;;5082250;28;20426;-30
2022/12/04 05:05:29;;;;;;;17.40;11.60;;;2.90;99.90;;;;;;5088921;28;20411;-30
2022/12/04 05:07:54;;;;;;;21.70;13.30;;;3.00;99.90;;;;;;5090431;28;20515;-30
2022/12/04 05:10:20;;;;;;;19.87;13.10;;;2.80;99.90;;;;;;5089348;28;20181;-30
2022/12/04 05:12:46;;;;;;;20.83;13.60;;;3.00;99.90;;;;;;5077595;28;20695;-30
2022/12/04 05:15:11;;;;;;;21.77;13.67;;;3.10;99.90;;;;;;5069545;28;20181;-30
2022/12/04 05:17:37;;;;;;;21.00;13.40;;;2.80;99.90;;;;;;5069479;28;20222;-30
2022/12/04 05:20:04;;;;;;;20.50;13.70;;;2.80;99.90;;;;;;5067483;28;20419;-30
2022/12/04 05:22:33;;;;;;;19.00;12.97;;;3.00;99.90;;;;;;5070926;28;20411;-30
2022/12/04 05:24:59;;;;;;;21.27;13.03;;;2.80;99.90;;;;;;5088954;28;20493;-30
2022/12/04 05:27:26;;;;;;;17.40;12.40;;;2.70;99.90;;;;;;5081511;28;20811;-30
2022/12/04 05:29:52;;;;;;;19.00;12.23;;;2.90;99.90;;;;;;5089668;28;20779;-30
2022/12/04 05:32:18;;;;;;;20.33;13.03;;;2.90;99.90;;;;;;5089289;28;20405;-30
2022/12/04 05:34:51;;;;;;;19.57;12.43;;;2.90;99.90;;;;;;5087777;28;20494;-30
2022/12/04 05:37:16;;;;;;;18.63;12.30;;;3.00;99.90;;;;;;5089155;28;20900;-30
2022/12/04 05:39:42;;;;;;;19.73;11.93;;;3.10;99.90;;;;;;5088849;28;20484;-30
2022/12/04 05:42:08;;;;;;;19.83;12.83;;;2.80;99.90;;;;;;5089295;28;20223;-30
2022/12/04 05:44:33;;;;;;;21.27;14.13;;;3.10;99.90;;;;;;5104606;28;20283;-30
2022/12/04 05:46:59;;;;;;;17.17;11.60;;;2.70;99.90;;;;;;5088883;28;20783;-30
2022/12/04 05:49:27;;;;;;;19.27;12.57;;;2.90;99.90;;;;;;5089017;28;20180;-30
2022/12/04 05:51:53;;;;;;;17.90;11.50;;;2.90;99.90;;;;;;5089256;28;20204;-30
2022/12/04 05:54:18;;;;;;;16.70;11.77;;;3.00;99.90;;;;;;5089010;28;20425;-30
2022/12/04 05:56:44;;;;;;;17.40;11.30;;;2.90;99.90;;;;;;5088854;28;20268;-30
2022/12/04 05:59:10;;;;;;;16.10;11.50;;;2.80;99.90;;;;;;5088553;28;20208;-30
2022/12/04 06:01:36;;;;;;;18.93;11.63;;;3.00;99.90;;;;;;5088775;28;20415;-30
2022/12/04 06:04:02;;;;;;;15.50;10.80;;;2.90;99.90;;;;;;5088717;28;20225;-30
2022/12/04 06:06:28;;;;;;;17.20;11.10;;;2.80;99.90;;;;;;5089150;28;20463;-30
2022/12/04 06:08:56;;;;;;;15.13;11.00;;;2.90;99.90;;;;;;5088384;28;20417;-30
2022/12/04 06:11:28;;;;;;;16.27;10.70;;;2.90;99.90;;;;;;5088509;28;20211;-30
2022/12/04 06:13:55;;;;;;;14.63;9.67;;;2.90;99.90;;;;;;5068136;28;20423;-30
2022/12/04 06:16:30;;;;;;;13.93;10.83;;;2.80;99.90;;;;;;5068364;28;20451;-30
2022/12/04 06:18:58;;;;;;;19.33;11.10;;;2.60;99.90;;;;;;5067957;28;20455;-30
2022/12/04 06:21:25;;;;;;;16.27;10.30;;;2.60;99.90;;;;;;5068431;28;20889;-30
2022/12/04 06:23:52;;;;;;;18.17;10.70;;;2.70;99.90;;;;;;5067887;28;20932;-30
2022/12/04 06:26:19;;;;;;;18.30;11.80;;;3.00;99.90;;;;;;5066801;28;20419;-30
2022/12/04 06:28:45;;;;;;;15.70;11.13;;;3.00;99.90;;;;;;5067601;28;20805;-30
2022/12/04 06:31:13;;;;;;;16.10;11.00;;;3.00;99.90;;;;;;5068218;28;20859;-30
2022/12/04 06:33:39;;;;;;;15.30;10.30;;;2.70;99.90;;;;;;5066957;28;20464;-30
2022/12/04 06:36:14;;;;;;;14.03;9.83;;;2.80;99.90;;;;;;5067882;28;20424;-30
2022/12/04 06:38:41;;;;;;;14.00;10.20;;;2.80;99.90;;;;;;5067771;28;20450;-30
2022/12/04 06:41:10;;;;;;;15.07;10.67;;;2.70;99.90;;;;;;5067668;28;20492;-30
2022/12/04 06:43:35;;;;;;;14.73;10.93;;;2.80;99.90;;;;;;5068002;28;20412;-30
2022/12/04 06:46:07;;;;;;;14.23;10.27;;;3.00;99.90;;;;;;5067880;28;20422;-30
2022/12/04 06:48:33;;;;;;;14.07;9.97;;;2.90;99.90;;;;;;5067698;28;20311;-30
2022/12/04 06:51:00;;;;;;;13.57;10.23;;;3.00;99.90;;;;;;5067683;28;20411;-30
2022/12/04 06:53:29;;;;;;;16.00;10.87;;;2.80;99.90;;;;;;5067576;28;20419;-30
2022/12/04 06:55:55;;;;;;;14.77;10.30;;;2.60;99.90;;;;;;5066247;28;20584;-30
2022/12/04 06:58:21;;;;;;;12.83;9.67;;;2.70;99.90;;;;;;5065839;28;20689;-30
2022/12/04 07:00:46;;;;;;;15.43;10.90;;;2.60;99.90;;;;;;5067691;28;20423;-30
2022/12/04 07:03:12;;;;;;;14.53;9.57;;;2.40;99.90;;;;;;5067302;28;20169;-30
2022/12/04 07:05:38;;;;;;;14.10;10.23;;;2.40;99.90;;;;;;5067748;28;20260;-30
2022/12/04 07:08:03;;;;;;;13.40;9.90;;;2.50;99.90;;;;;;5065997;28;20189;-30
2022/12/04 07:10:29;;;;;;;12.20;9.43;;;2.50;99.90;;;;;;5082624;28;20192;-30
2022/12/04 07:12:55;;;;;;;13.40;10.00;;;2.40;99.90;;;;;;5080250;28;20461;-30
2022/12/04 07:15:20;;;;;;;13.60;9.47;;;2.50;99.90;;;;;;5087839;28;20553;-30
2022/12/04 07:17:46;;;;;;;14.63;10.37;;;2.50;99.90;;;;;;5087399;28;20212;-30
2022/12/04 07:20:12;;;;;;;16.30;10.87;;;2.60;99.90;;;;;;5087304;28;20199;-30
2022/12/04 07:22:37;;;;;;;15.60;11.13;;;2.70;99.90;;;;;;5087398;28;20204;-30
2022/12/04 07:25:04;;;;;;;14.20;10.50;;;2.80;99.90;;;;;;5087384;28;20533;-30
2022/12/04 07:27:30;;;;;;;14.90;10.17;;;2.70;99.90;;;;;;5084044;28;20583;-30
2022/12/04 07:29:56;;;;;;;13.47;10.43;;;2.90;99.90;;;;;;5081810;28;20403;-30
2022/12/04 07:32:21;;;;;;;15.53;9.90;;;2.70;99.90;;;;;;5087445;28;20444;-30
2022/12/04 07:34:47;;;;;;;14.63;10.43;;;2.80;99.90;;;;;;5085885;28;21078;-30
2022/12/04 07:37:13;;;;;;;15.30;10.23;;;2.70;99.90;;;;;;5087916;28;20177;-30
2022/12/04 07:39:38;;;;;;;13.93;10.53;;;2.80;99.90;;;;;;5086417;28;20200;-30
2022/12/04 07:42:04;;;;;;;12.53;9.80;;;2.80;99.90;;;;;;5078948;28;20180;-30
2022/12/04 07:44:31;;;;;;;12.73;9.43;;;2.80;99.90;;;;;;5087216;28;20176;-30
2022/12/04 07:46:56;;;;;;;16.30;11.50;;;2.60;99.90;;;;;;5087395;28;20169;-30
2022/12/04 07:49:22;;;;;;;17.10;11.20;;;2.80;99.90;;;;;;5086769;28;20940;-30
2022/12/04 07:51:48;;;;;;;14.40;9.87;;;2.80;99.90;;;;;;5087319;28;20611;-30
2022/12/04 07:54:13;;;;;;;14.63;10.13;;;2.70;99.90;;;;;;5086537;28;20268;-30
2022/12/04 07:56:39;;;;;;;15.73;11.40;;;2.90;99.90;;;;;;5086977;28;20180;-30
2022/12/04 07:59:05;;;;;;;15.87;10.60;;;2.80;99.90;;;;;;5086860;28;20235;-29
2022/12/04 08:01:31;;;;;;;14.60;10.57;;;2.80;99.90;;;;;;5084157;28;20189;-30
2022/12/04 08:03:59;;;;;;;14.30;10.13;;;2.70;99.90;;;;;;5081321;28;20173;-30
2022/12/04 08:06:28;;;;;;;14.57;10.90;;;2.80;99.90;;;;;;5087102;28;20501;-30
2022/12/04 08:08:54;;;;;;;15.80;10.90;;;2.70;99.90;;;;;;5086873;28;20429;-30
2022/12/04 08:11:22;;;;;;;15.13;10.60;;;2.90;99.90;;;;;;5091172;28;20414;-30
2022/12/04 08:13:52;;;;;;;18.07;11.67;;;2.80;99.90;;;;;;5070893;28;20497;-30
2022/12/04 08:16:18;;;;;;;16.30;12.13;;;2.90;99.90;;;;;;5069068;28;20486;-30
2022/12/04 08:18:47;;;;;;;14.17;10.80;;;3.00;99.90;;;;;;5070336;28;20926;-30
2022/12/04 08:21:15;;;;;;;16.97;11.67;;;3.10;99.90;;;;;;5070450;28;20173;-30
2022/12/04 08:23:42;;;;;;;15.03;10.60;;;3.00;99.90;;;;;;5070653;28;20412;-30
2022/12/04 08:26:08;;;;;;;16.23;10.77;;;2.90;99.90;;;;;;5070805;28;20464;-30
2022/12/04 08:28:35;;;;;;;15.87;10.73;;;3.10;99.90;;;;;;5070376;28;20419;-30
2022/12/04 08:31:03;;;;;;;13.23;10.23;;;3.10;99.90;;;;;;5070587;28;20427;-30
2022/12/04 08:33:29;;;;;;;15.17;11.43;;;3.00;99.90;;;;;;5069203;28;20442;-30
2022/12/04 08:35:55;;;;;;;14.67;10.83;;;2.90;99.90;;;;;;5069984;28;20419;-30
2022/12/04 08:38:20;;;;;;;16.40;11.47;;;2.90;99.90;;;;;;5075145;28;20658;-30
2022/12/04 08:40:46;;;;;;;14.90;11.70;;;2.90;99.90;;;;;;5105191;28;20618;-30
2022/12/04 08:43:11;;;;;;;19.33;12.10;;;2.80;99.90;;;;;;5100435;28;20184;-30
2022/12/04 08:45:40;;;;;;;16.10;11.53;;;3.00;99.90;;;;;;5080543;28;20183;-30
2022/12/04 08:48:06;;;;;;;19.13;12.10;;;2.90;99.90;;;;;;5068515;28;20181;-30
2022/12/04 08:50:32;;;;;;;16.73;11.33;;;3.00;99.90;;;;;;5076804;28;20825;-29
2022/12/04 08:52:58;;;;;;;17.10;11.93;;;3.00;99.90;;;;;;5083543;28;20586;-30
2022/12/04 08:55:23;;;;;;;17.90;11.07;;;2.90;99.90;;;;;;5094707;28;20420;-30
2022/12/04 08:57:52;;;;;;;15.30;11.30;;;2.90;99.90;;;;;;5095795;28;20295;-30
2022/12/04 09:00:18;;;;;;;16.83;11.83;;;3.10;99.90;;;;;;5080072;28;20200;-30
2022/12/04 09:02:47;;;;;;;18.47;10.70;;;2.90;99.90;;;;;;5079504;28;20458;-30
2022/12/04 09:05:12;;;;;;;16.13;11.77;;;3.10;99.90;;;;;;5078111;28;20431;-30
2022/12/04 09:07:38;;;;;;;17.10;11.50;;;2.90;99.90;;;;;;5080872;28;20746;-30
2022/12/04 09:10:04;;;;;;;18.07;11.30;;;3.00;99.90;;;;;;5072570;28;20200;-30
2022/12/04 09:12:30;;;;;;;18.47;12.57;;;3.00;99.90;;;;;;5079527;28;20180;-30
2022/12/04 09:14:55;;;;;;;19.00;12.13;;;2.90;99.90;;;;;;5089763;28;20697;-30
2022/12/04 09:17:21;;;;;;;15.87;11.17;;;2.90;99.90;;;;;;5080383;28;20308;-30
2022/12/04 09:19:46;;;;;;;15.80;11.60;;;2.90;99.90;;;;;;5083480;28;20220;-30
2022/12/04 09:22:12;;;;;;;16.13;11.30;;;3.00;99.90;;;;;;5087113;28;20353;-30
2022/12/04 09:24:38;;;;;;;15.50;10.90;;;3.20;99.90;;;;;;5086484;28;20272;-30
2022/12/04 09:27:03;;;;;;;18.07;12.57;;;3.00;99.90;;;;;;5088667;28;20208;-30
2022/12/04 09:29:29;;;;;;;17.50;12.23;;;3.00;99.90;;;;;;5080125;28;20498;-30
2022/12/04 09:31:54;;;;;;;19.43;14.37;;;3.10;99.90;;;;;;5089260;28;20583;-30
2022/12/04 09:34:20;;;;;;;22.33;14.27;;;3.00;99.90;;;;;;5087940;28;20214;-30
2022/12/04 09:36:46;;;;;;;24.10;20.53;;;3.00;99.90;;;;;;5088142;28;20819;-30
2022/12/04 09:39:11;;;;;;;19.80;13.57;;;3.00;99.90;;;;;;5088186;28;20219;-30
2022/12/04 09:41:57;;;;;;;20.30;13.60;;;3.10;99.90;;;;;;5084473;28;20236;-30
2022/12/04 09:44:32;;;;;;;18.00;12.50;;;3.10;99.90;;;;;;5080387;28;20194;-30
2022/12/04 09:47:34;;;;;;;18.57;12.70;;;3.20;99.90;;;;;;5081674;28;20444;-30
2022/12/04 09:50:20;;;;;;;21.87;14.50;;;3.00;99.90;;;;;;5074079;28;20458;-30
2022/12/04 09:53:02;;;;;;;16.43;11.47;;;3.10;99.90;;;;;;5082207;28;20531;-30
2022/12/04 09:55:36;;;;;;;18.83;14.03;;;3.10;99.90;;;;;;5077568;28;20808;-30
2022/12/04 09:58:05;;;;;;;20.57;14.60;;;3.10;99.90;;;;;;5076930;28;20466;-30
2022/12/04 10:00:37;;;;;;;16.70;12.47;;;3.40;99.90;;;;;;5076241;28;20458;-30
2022/12/04 10:03:06;;;;;;;22.03;13.50;;;3.20;99.90;;;;;;5079088;28;20451;-30
2022/12/04 10:05:51;;;;;;;20.90;14.27;;;3.50;99.90;;;;;;5083120;28;20450;-30
2022/12/04 10:08:21;;;;;;;21.07;14.50;;;3.50;99.90;;;;;;5088017;28;20456;-30
2022/12/04 10:11:19;;;;;;;19.97;12.83;;;3.40;99.90;;;;;;5088258;28;20486;-30
2022/12/04 10:14:13;;;;;;;18.80;14.60;;;3.60;99.90;;;;;;5077822;28;20902;-30
2022/12/04 10:16:57;;;;;;;18.47;12.90;;;3.70;99.90;;;;;;5079009;28;20477;-30
2022/12/04 10:19:38;;;;;;;16.30;11.80;;;3.60;99.90;;;;;;5082667;28;20517;-30
2022/12/04 10:22:12;;;;;;;18.50;12.93;;;3.90;99.90;;;;;;5080571;28;20465;-30
2022/12/04 10:24:44;;;;;;;18.03;13.00;;;3.80;99.90;;;;;;5087779;28;20446;-30
2022/12/04 10:27:19;;;;;;;20.60;13.40;;;4.00;99.90;;;;;;5088305;28;20869;-30
2022/12/04 10:29:51;;;;;;;20.57;13.50;;;3.90;99.90;;;;;;5087325;28;20453;-30
2022/12/04 10:32:36;;;;;;;22.10;14.93;;;3.80;99.90;;;;;;5087683;28;20438;-30
2022/12/04 10:35:22;;;;;;;22.67;14.37;;;3.70;99.90;;;;;;5081248;28;20475;-31
2022/12/04 10:37:55;;;;;;;20.37;13.87;;;3.70;99.90;;;;;;5088420;28;20569;-30
2022/12/04 10:40:28;;;;;;;21.90;14.93;;;3.70;99.90;;;;;;5081595;28;20467;-30
2022/12/04 10:43:10;;;;;;;19.83;13.10;;;3.80;99.90;;;;;;5076649;28;20443;-30
2022/12/04 10:45:36;;;;;;;20.87;14.50;;;3.90;99.90;;;;;;5081559;28;20486;-30
2022/12/04 10:48:02;;;;;;;19.20;12.93;;;3.90;99.90;;;;;;5077277;28;20430;-30
2022/12/04 10:50:28;;;;;;;18.60;13.30;;;3.80;99.90;;;;;;5085151;28;20500;-30
2022/12/04 10:52:53;;;;;;;20.23;14.17;;;4.00;99.90;;;;;;5087283;28;20476;-30
2022/12/04 10:55:33;;;;;;;21.67;13.53;;;3.80;99.90;;;;;;5085919;28;20232;-30
2022/12/04 10:58:01;;;;;;;20.50;14.17;;;3.80;99.90;;;;;;5083180;28;20224;-30
2022/12/04 11:00:32;;;;;;;20.50;13.20;;;3.90;99.90;;;;;;5079818;28;20490;-31
2022/12/04 11:03:08;;;;;;;17.80;12.30;;;3.80;99.90;;;;;;5075400;28;20450;-30
2022/12/04 11:05:44;;;;;;;18.37;13.43;;;3.90;99.90;;;;;;5082260;28;20951;-30
2022/12/04 11:08:22;;;;;;;20.23;13.53;;;3.70;99.90;;;;;;5079629;28;20446;-30
2022/12/04 11:11:00;;;;;;;22.67;14.90;;;4.00;99.90;;;;;;5084025;28;20952;-30
2022/12/04 11:13:26;;;;;;;18.20;14.03;;;3.90;99.90;;;;;;5094641;28;20466;-30
2022/12/04 11:15:54;;;;;;;19.13;13.03;;;3.80;99.90;;;;;;5079758;28;20473;-30
2022/12/04 11:18:25;;;;;;;20.00;13.27;;;3.80;99.90;;;;;;5078983;28;20493;-30
2022/12/04 11:21:05;;;;;;;18.87;12.57;;;3.80;99.90;;;;;;5082725;28;20473;-31
2022/12/04 11:23:34;;;;;;;18.87;12.80;;;3.90;99.90;;;;;;5077689;28;20545;-30
2022/12/04 11:26:00;;;;;;;20.90;14.33;;;3.70;99.90;;;;;;5077658;28;20442;-30
2022/12/04 11:28:31;;;;;;;18.80;13.57;;;3.60;99.90;;;;;;5090228;28;20508;-30
2022/12/04 11:31:01;;;;;;;19.33;13.20;;;3.80;99.90;;;;;;5076846;28;20463;-30
2022/12/04 11:33:52;;;;;;;18.00;13.10;;;3.70;99.90;;;;;;5075435;28;20928;-30
2022/12/04 11:36:22;;;;;;;19.20;13.03;;;3.80;99.90;;;;;;5078945;28;20518;-31
2022/12/04 11:38:51;;;;;;;19.97;14.90;;;3.80;99.90;;;;;;5079764;28;20474;-30
2022/12/04 11:41:30;;;;;;;21.30;14.10;;;3.90;99.90;;;;;;5076467;28;20501;-31
2022/12/04 11:43:57;;;;;;;22.10;14.90;;;3.80;99.90;;;;;;5080630;28;20437;-31
2022/12/04 11:46:29;;;;;;;20.37;14.20;;;3.70;99.90;;;;;;5084032;28;20487;-30
2022/12/04 11:48:55;;;;;;;23.00;13.97;;;3.90;99.90;;;;;;5082877;28;20457;-30
2022/12/04 11:51:20;;;;;;;18.17;12.63;;;3.90;99.90;;;;;;5080709;28;20454;-30
2022/12/04 11:54:13;;;;;;;19.13;13.50;;;3.80;99.90;;;;;;5082263;28;20436;-30
2022/12/04 11:56:42;;;;;;;18.30;12.40;;;3.80;99.90;;;;;;5082619;28;20670;-30
2022/12/04 11:59:10;;;;;;;20.30;13.33;;;3.90;99.90;;;;;;5085378;28;20918;-30
2022/12/04 12:02:08;;;;;;;21.90;13.33;;;3.70;99.90;;;;;;5087119;28;20870;-30
2022/12/04 12:04:52;;;;;;;22.10;13.87;;;3.90;99.90;;;;;;5090652;28;20494;-31
2022/12/04 12:07:35;;;;;;;21.17;13.77;;;3.90;99.90;;;;;;5081832;28;20794;-31
2022/12/04 12:10:22;;;;;;;21.03;14.53;;;3.90;99.90;;;;;;5084954;28;20449;-29
2022/12/04 12:13:09;;;;;;;20.63;14.17;;;3.90;99.90;;;;;;5089285;28;20442;-30
2022/12/04 12:16:06;;;;;;;19.40;12.73;;;3.80;99.90;;;;;;5081021;28;20462;-30
2022/12/04 12:18:50;;;;;;;20.53;12.10;;;3.80;99.90;;;;;;5090545;28;20466;-30
2022/12/04 12:21:25;;;;;;;20.97;13.90;;;4.10;99.90;;;;;;5091603;28;20684;-31
2022/12/04 12:24:22;;;;;;;20.17;13.20;;;3.80;99.90;;;;;;5091801;28;20514;-30
2022/12/04 12:27:17;;;;;;;17.30;13.07;;;4.00;99.90;;;;;;5072314;28;20462;-30
2022/12/04 12:29:51;;;;;;;17.20;12.67;;;3.90;99.90;;;;;;5087350;28;20450;-30
2022/12/04 12:32:52;;;;;;;18.20;12.40;;;3.80;99.90;;;;;;5081555;28;20517;-30
2022/12/04 12:35:23;;;;;;;19.50;13.83;;;4.00;99.90;;;;;;5052509;28;20556;-31
2022/12/04 12:37:55;;;;;;;19.60;13.43;;;4.10;99.90;;;;;;5087244;28;20502;-30
2022/12/04 12:40:32;;;;;;;17.37;13.07;;;4.10;99.90;;;;;;5089625;28;20462;-30
2022/12/04 12:43:11;;;;;;;18.50;12.80;;;4.00;99.90;;;;;;5076648;28;20885;-30
2022/12/04 12:46:04;;;;;;;20.10;12.97;;;3.90;99.90;;;;;;5087851;28;20461;-30
2022/12/04 12:48:52;;;;;;;18.73;14.07;;;3.90;99.90;;;;;;5085879;28;20461;-30
2022/12/04 12:51:20;;;;;;;19.10;13.17;;;4.00;99.90;;;;;;5101122;28;20462;-30
2022/12/04 12:53:50;;;;;;;30.60;18.53;;;4.20;99.90;;;;;;5087316;28;20446;-30
2022/12/04 12:56:21;;;;;;;20.83;13.90;;;3.90;99.90;;;;;;5079615;28;20475;-30
2022/12/04 12:58:56;;;;;;;34.70;19.80;;;4.10;99.90;;;;;;5079303;28;20562;-30
2022/12/04 13:01:37;;;;;;;19.20;13.73;;;4.20;99.90;;;;;;5084760;28;20445;-31
2022/12/04 13:04:07;;;;;;;17.57;12.90;;;4.10;99.90;;;;;;5083570;28;20516;-30
2022/12/04 13:06:38;;;;;;;20.20;14.23;;;4.00;99.90;;;;;;5090623;28;20522;-31
2022/12/04 13:09:19;;;;;;;17.77;13.90;;;4.00;99.90;;;;;;5079022;28;20978;-30
2022/12/04 13:11:48;;;;;;;18.03;13.03;;;4.00;99.90;;;;;;5088815;28;20550;-30